Aérodrome :
LOGIN :

S'inscrire | Disclaimer

   EN    FR    IT 

 










Légende :    VFR   VFR Marginal   IFR   IFR Intensif   IFR Très Intensif
Visi : 
Plafond : 
>= 8 km
>= 3000ft
5 à 8 km
1000 à 3000 ft
1500m à 5 km
500 à 1000 ft
800 à 1500m
200 à 500 ft
< 800m
< 200 ft
Symboles :   Orages  Brouillard  Fortes neiges  Fortes précipitations  Vent > 20 kt
SIGMETs :   Divers  Orages  Givrage  Turbulence  Onde Orograph.  Cendres Volcan.






- Altitude de l'aérodrome : 233 ft
- Code IATA : REU


LERS - Reus Tarragona

DERNIER METAR :
  • 030130Z AUTO 00000KT //// // ////// 10/10 Q1014

METARs EXPIRÉS :
  • 030100Z AUTO VRB02KT //// // ////// 10/10 Q1014
  • 030030Z AUTO 24004KT //// // ////// 10/10 Q1014
  • 030000Z AUTO 25002KT //// // ////// 10/10 Q1014
  • 022300Z AUTO 29006KT //// // ////// 11/11 Q1014

TAF TAF LERS
Valide du 02 à 21h jusqu'au 03 à 21h UTC


022000Z 0221/0321 VRB04KT 9999 SCT040 TX16/0312Z TN07/0306Z
PROB30
TEMPO 0221/0224 RA BKN020
PROB30
TEMPO 0300/0306 4000 BR BKN010
BECMG 0304/0306 28012KT
TEMPO 0307/0313 29015G26KT



MET'MAP, la Météo Aéronautique d'un coup d'oeil ! - Copyright ORBIFLY Décembre 2007 - Disclaimer

ORBIFLY MET'MAP TEAM :

Programmation & Développement : Alexandra Zaïnal
Sur une idée originale de : Baudouin d'Aumeries
Assistance à la programmation : Marc-Olivier Méhu
Soutien technique & logistique : Manuel Goepfert

Contact : metmap@orbifly.com




SOURCES & CREDITS :

   NOAA